»·PEaware :: CAX352 KLAX-KSJC

CAX352 :: KLAX-KSJC

FLIGHT INFORMATION

Flight Status: Arrived
Operator:
California Airlines (website)
More flights by this operator :: More flights under this callsign
Pilot: Dan K. (1691)
Aircraft: BOEING 737-800
(B738)
More flights by this aircraft type
Origin: KLAX Los Angeles Intl
United States
Destination: KSJC Mineta San Jose Intl
United States
More flights between these airports :: More routes between these airports
Route: DARRK1 SCTRR TROXX SILCN4
File this flight plan on PilotEdge
Remarks:
Altitude:
(Current/Filed)
34,000ft
Speed:
(Current/Filed)
469kts
Departed: 23-Oct-17 06:18 PM
Arrived: 23-Oct-17 07:07 PM
Distance/Time
Traveled:
268nm/0:48
Distance/Time
To Go:
Arrived

Flight Plot

Page will automatically refresh every two minutes.


Map Options




Map Legend


Flown Route
Filed Route
Departure Airport
Arrival Airport
Navaid (VOR, NDB)
Fix

Horizontal Profiles

Position Reports

Time Latitude Longitude Heading Altitude Ground
Speed
23-Oct-17 18:00 33.941902 -118.405181 104 132ft 0kts
23-Oct-17 18:01 33.941902 -118.405181 104 132ft 0kts
23-Oct-17 18:02 33.941902 -118.405181 104 132ft 0kts
23-Oct-17 18:03 33.941902 -118.405181 104 132ft 0kts
23-Oct-17 18:04 33.941902 -118.405181 104 132ft 0kts
23-Oct-17 18:05 33.941902 -118.405181 104 132ft 0kts
23-Oct-17 18:06 33.941902 -118.405181 104 132ft 0kts
23-Oct-17 18:07 33.941903 -118.405186 104 133ft 1kts
23-Oct-17 18:08 33.941905 -118.405763 92 132ft 1kts
23-Oct-17 18:09 33.941368 -118.405618 193 132ft 5kts
23-Oct-17 18:10 33.940931 -118.405609 173 132ft 0kts
23-Oct-17 18:11 33.940931 -118.405609 173 132ft 0kts
23-Oct-17 18:12 33.940931 -118.405609 173 132ft 0kts
23-Oct-17 18:13 33.940931 -118.405609 173 132ft 0kts
23-Oct-17 18:14 33.940931 -118.405609 173 132ft 0kts
23-Oct-17 18:15 33.940931 -118.405609 173 132ft 0kts
23-Oct-17 18:16 33.940559 -118.405557 173 132ft 8kts
23-Oct-17 18:17 33.938242 -118.404877 94 132ft 8kts
23-Oct-17 18:18 33.939039 -118.397852 83 133ft 29kts
23-Oct-17 18:19 33.940091 -118.387215 83 132ft 29kts
23-Oct-17 18:20 33.940689 -118.380657 118 133ft 1kts
23-Oct-17 18:21 33.940668 -118.380626 127 133ft 0kts
23-Oct-17 18:22 33.939727 -118.380982 267 133ft 15kts
23-Oct-17 18:23 33.936715 -118.412103 264 687ft 166kts
23-Oct-17 18:24 33.931547 -118.464815 263 1789ft 164kts
23-Oct-17 18:25 33.925206 -118.525624 263 3241ft 215kts
23-Oct-17 18:26 33.916777 -118.606281 263 5077ft 270kts
23-Oct-17 18:27 33.907681 -118.693340 262 7269ft 275kts
23-Oct-17 18:28 33.910829 -118.784245 278 9259ft 282kts
23-Oct-17 18:29 33.931614 -118.875409 297 11250ft 300kts
23-Oct-17 18:30 33.971279 -118.968008 314 12938ft 335kts
23-Oct-17 18:31 34.057702 -119.000606 357 15062ft 343kts
23-Oct-17 18:32 34.150437 -119.021403 330 18007ft 363kts
23-Oct-17 18:33 34.223705 -119.106981 316 20827ft 382kts
23-Oct-17 18:34 34.298297 -119.198227 316 23378ft 397kts
23-Oct-17 18:35 34.376078 -119.292890 316 25736ft 411kts
23-Oct-17 18:36 34.456498 -119.390656 315 27790ft 425kts
23-Oct-17 18:37 34.539499 -119.491465 315 29703ft 435kts
23-Oct-17 18:38 34.624922 -119.595090 314 31553ft 441kts
23-Oct-17 18:39 34.707637 -119.695333 314 33986ft 420kts
23-Oct-17 18:40 34.791855 -119.797364 314 34063ft 447kts
23-Oct-17 18:41 34.879095 -119.902890 314 34101ft 449kts
23-Oct-17 18:42 34.966188 -120.008137 314 34102ft 449kts
23-Oct-17 18:43 35.054266 -120.114466 314 34102ft 450kts
23-Oct-17 18:44 35.141173 -120.219272 314 34102ft 450kts
23-Oct-17 18:45 35.236514 -120.315956 322 34101ft 453kts
23-Oct-17 18:46 35.336333 -120.407195 320 34099ft 462kts
23-Oct-17 18:47 35.438673 -120.501155 320 34155ft 466kts
23-Oct-17 18:48 35.541671 -120.594480 325 34175ft 467kts
23-Oct-17 18:49 35.647931 -120.677361 324 34184ft 467kts
23-Oct-17 18:50 35.755967 -120.762518 324 34185ft 467kts
23-Oct-17 18:51 35.864918 -120.848415 325 33112ft 474kts
23-Oct-17 18:52 35.972049 -120.932812 325 31109ft 452kts
23-Oct-17 18:53 36.071061 -121.020792 319 29145ft 440kts
23-Oct-17 18:54 36.140874 -121.087736 320 27676ft 431kts
23-Oct-17 18:55 36.233062 -121.175760 320 25685ft 420kts
23-Oct-17 18:56 36.323502 -121.262029 320 23693ft 410kts
23-Oct-17 18:57 36.411506 -121.346543 321 21708ft 401kts
23-Oct-17 18:58 36.497413 -121.428341 329 19714ft 388kts
23-Oct-17 18:59 36.595669 -121.471969 342 17744ft 370kts
23-Oct-17 19:00 36.688773 -121.511061 342 15594ft 355kts
23-Oct-17 19:01 36.779089 -121.549300 343 13058ft 329kts
23-Oct-17 19:02 36.862178 -121.584643 343 11339ft 312kts
23-Oct-17 19:03 36.940627 -121.618008 343 9683ft 301kts
23-Oct-17 19:04 37.016798 -121.650310 341 8121ft 287kts
23-Oct-17 19:05 37.088240 -121.680671 341 6922ft 265kts
23-Oct-17 19:06 37.151886 -121.707807 340 5817ft 250kts
23-Oct-17 19:07 37.204379 -121.756987 319 4153ft 242kts
23-Oct-17 19:08 37.244425 -121.800610 317 3005ft 219kts
23-Oct-17 19:09 37.286782 -121.846842 317 1916ft 186kts
23-Oct-17 19:10 37.325454 -121.889081 319 816ft 145kts
23-Oct-17 19:11 37.350623 -121.916654 316 242ft 142kts
23-Oct-17 19:12 37.369590 -121.937427 320 70ft 17kts
23-Oct-17 19:13 37.372658 -121.936485 48 70ft 10kts
23-Oct-17 19:14 37.371258 -121.933508 138 70ft 12kts
23-Oct-17 19:15 37.369100 -121.931147 138 70ft 9kts
23-Oct-17 19:16 37.369082 -121.930272 46 70ft 0kts

Navigation Log

Ident Type
Flight plan parsing failed, navigation log unavailable